sensor_id;sensor_type;location;lat;lon;timestamp;P1;durP1;ratioP1;P2;durP2;ratioP2
43098;SDS011;28715;51.988;6.020;2022-10-17T00:01:10;26.37;;;19.43;;
43098;SDS011;28715;51.988;6.020;2022-10-17T00:03:37;27.98;;;19.73;;
43098;SDS011;28715;51.988;6.020;2022-10-17T00:06:05;28.65;;;21.77;;
43098;SDS011;28715;51.988;6.020;2022-10-17T00:08:32;30.77;;;20.85;;
43098;SDS011;28715;51.988;6.020;2022-10-17T00:11:08;31.90;;;23.47;;
43098;SDS011;28715;51.988;6.020;2022-10-17T00:13:39;33.97;;;23.27;;
43098;SDS011;28715;51.988;6.020;2022-10-17T00:16:04;32.43;;;21.20;;
43098;SDS011;28715;51.988;6.020;2022-10-17T00:18:31;31.85;;;22.95;;
43098;SDS011;28715;51.988;6.020;2022-10-17T00:20:56;29.40;;;21.10;;
43098;SDS011;28715;51.988;6.020;2022-10-17T00:23:22;28.20;;;20.40;;
43098;SDS011;28715;51.988;6.020;2022-10-17T00:25:56;32.33;;;23.30;;
43098;SDS011;28715;51.988;6.020;2022-10-17T00:28:24;32.28;;;21.92;;
43098;SDS011;28715;51.988;6.020;2022-10-17T00:30:57;31.97;;;21.63;;
43098;SDS011;28715;51.988;6.020;2022-10-17T00:33:24;33.40;;;22.70;;
43098;SDS011;28715;51.988;6.020;2022-10-17T00:35:50;33.90;;;20.85;;
43098;SDS011;28715;51.988;6.020;2022-10-17T00:38:15;33.67;;;21.93;;
43098;SDS011;28715;51.988;6.020;2022-10-17T00:40:41;34.10;;;23.03;;
43098;SDS011;28715;51.988;6.020;2022-10-17T00:43:14;33.07;;;22.70;;
43098;SDS011;28715;51.988;6.020;2022-10-17T00:45:41;28.15;;;21.08;;
43098;SDS011;28715;51.988;6.020;2022-10-17T00:48:08;36.17;;;24.63;;
43098;SDS011;28715;51.988;6.020;2022-10-17T00:50:35;33.53;;;23.67;;
43098;SDS011;28715;51.988;6.020;2022-10-17T00:53:05;34.08;;;22.85;;
43098;SDS011;28715;51.988;6.020;2022-10-17T00:55:33;35.65;;;23.83;;
43098;SDS011;28715;51.988;6.020;2022-10-17T00:58:11;31.75;;;22.38;;
43098;SDS011;28715;51.988;6.020;2022-10-17T01:00:37;34.33;;;24.50;;
43098;SDS011;28715;51.988;6.020;2022-10-17T01:03:03;42.90;;;27.57;;
43098;SDS011;28715;51.988;6.020;2022-10-17T01:05:28;40.43;;;26.73;;
43098;SDS011;28715;51.988;6.020;2022-10-17T01:07:54;35.20;;;24.07;;
43098;SDS011;28715;51.988;6.020;2022-10-17T01:10:21;31.43;;;23.03;;
43098;SDS011;28715;51.988;6.020;2022-10-17T01:12:59;43.20;;;27.55;;
43098;SDS011;28715;51.988;6.020;2022-10-17T01:15:58;33.00;;;23.27;;
43098;SDS011;28715;51.988;6.020;2022-10-17T01:21:28;31.20;;;22.27;;
43098;SDS011;28715;51.988;6.020;2022-10-17T01:27:21;36.28;;;24.40;;
43098;SDS011;28715;51.988;6.020;2022-10-17T01:33:03;32.67;;;23.33;;
43098;SDS011;28715;51.988;6.020;2022-10-17T01:35:55;34.22;;;23.65;;
43098;SDS011;28715;51.988;6.020;2022-10-17T01:38:47;31.40;;;21.33;;
43098;SDS011;28715;51.988;6.020;2022-10-17T01:41:30;33.30;;;22.38;;
43098;SDS011;28715;51.988;6.020;2022-10-17T01:44:11;43.35;;;26.70;;
43098;SDS011;28715;51.988;6.020;2022-10-17T01:46:45;40.45;;;26.15;;
43098;SDS011;28715;51.988;6.020;2022-10-17T01:49:19;31.45;;;20.55;;
43098;SDS011;28715;51.988;6.020;2022-10-17T01:57:08;34.42;;;24.15;;
43098;SDS011;28715;51.988;6.020;2022-10-17T02:02:16;33.70;;;21.75;;
43098;SDS011;28715;51.988;6.020;2022-10-17T02:04:44;38.63;;;24.40;;
43098;SDS011;28715;51.988;6.020;2022-10-17T02:07:12;36.17;;;23.52;;
43098;SDS011;28715;51.988;6.020;2022-10-17T02:09:38;38.23;;;23.63;;
43098;SDS011;28715;51.988;6.020;2022-10-17T02:20:07;33.95;;;22.88;;
43098;SDS011;28715;51.988;6.020;2022-10-17T02:25:56;35.53;;;23.67;;
43098;SDS011;28715;51.988;6.020;2022-10-17T02:31:16;45.38;;;25.77;;
43098;SDS011;28715;51.988;6.020;2022-10-17T02:33:57;31.60;;;20.67;;
43098;SDS011;28715;51.988;6.020;2022-10-17T02:36:47;32.22;;;21.10;;
43098;SDS011;28715;51.988;6.020;2022-10-17T02:39:19;32.08;;;22.08;;
43098;SDS011;28715;51.988;6.020;2022-10-17T02:41:51;34.05;;;22.88;;
43098;SDS011;28715;51.988;6.020;2022-10-17T02:44:20;35.58;;;23.58;;
43098;SDS011;28715;51.988;6.020;2022-10-17T02:46:49;32.58;;;21.25;;
43098;SDS011;28715;51.988;6.020;2022-10-17T02:53:13;32.15;;;19.88;;
43098;SDS011;28715;51.988;6.020;2022-10-17T02:55:30;29.98;;;20.35;;
43098;SDS011;28715;51.988;6.020;2022-10-17T02:57:59;35.13;;;22.05;;
43098;SDS011;28715;51.988;6.020;2022-10-17T03:00:30;41.63;;;24.40;;
43098;SDS011;28715;51.988;6.020;2022-10-17T03:02:57;44.15;;;24.75;;
43098;SDS011;28715;51.988;6.020;2022-10-17T03:05:27;31.58;;;21.30;;
43098;SDS011;28715;51.988;6.020;2022-10-17T03:07:56;33.55;;;22.25;;
43098;SDS011;28715;51.988;6.020;2022-10-17T03:10:21;38.17;;;23.43;;
43098;SDS011;28715;51.988;6.020;2022-10-17T03:12:47;50.05;;;27.65;;
43098;SDS011;28715;51.988;6.020;2022-10-17T03:15:16;50.07;;;26.23;;
43098;SDS011;28715;51.988;6.020;2022-10-17T03:17:41;41.28;;;23.40;;
43098;SDS011;28715;51.988;6.020;2022-10-17T03:20:09;47.10;;;25.88;;
43098;SDS011;28715;51.988;6.020;2022-10-17T03:22:35;31.73;;;21.00;;
43098;SDS011;28715;51.988;6.020;2022-10-17T03:25:00;43.27;;;25.00;;
43098;SDS011;28715;51.988;6.020;2022-10-17T03:27:26;32.93;;;19.80;;
43098;SDS011;28715;51.988;6.020;2022-10-17T03:29:52;45.00;;;23.50;;
43098;SDS011;28715;51.988;6.020;2022-10-17T03:32:17;38.60;;;23.53;;
43098;SDS011;28715;51.988;6.020;2022-10-17T03:34:43;37.63;;;22.93;;
43098;SDS011;28715;51.988;6.020;2022-10-17T03:37:08;40.63;;;23.53;;
43098;SDS011;28715;51.988;6.020;2022-10-17T03:39:34;43.53;;;24.83;;
43098;SDS011;28715;51.988;6.020;2022-10-17T03:41:59;45.70;;;25.47;;
43098;SDS011;28715;51.988;6.020;2022-10-17T03:44:25;44.60;;;24.67;;
43098;SDS011;28715;51.988;6.020;2022-10-17T03:46:51;39.53;;;23.33;;
43098;SDS011;28715;51.988;6.020;2022-10-17T03:49:16;45.10;;;24.53;;
43098;SDS011;28715;51.988;6.020;2022-10-17T03:51:44;32.87;;;21.23;;
43098;SDS011;28715;51.988;6.020;2022-10-17T03:54:12;41.92;;;23.77;;
43098;SDS011;28715;51.988;6.020;2022-10-17T03:56:40;47.10;;;24.17;;
43098;SDS011;28715;51.988;6.020;2022-10-17T03:59:08;40.50;;;24.55;;
43098;SDS011;28715;51.988;6.020;2022-10-17T04:01:41;49.88;;;25.80;;
43098;SDS011;28715;51.988;6.020;2022-10-17T04:04:07;36.70;;;21.00;;
43098;SDS011;28715;51.988;6.020;2022-10-17T04:06:33;39.30;;;22.75;;
43098;SDS011;28715;51.988;6.020;2022-10-17T04:08:59;39.28;;;23.05;;
43098;SDS011;28715;51.988;6.020;2022-10-17T04:11:25;38.92;;;22.30;;
43098;SDS011;28715;51.988;6.020;2022-10-17T04:13:52;36.63;;;21.93;;
43098;SDS011;28715;51.988;6.020;2022-10-17T04:16:19;43.78;;;23.67;;
43098;SDS011;28715;51.988;6.020;2022-10-17T04:18:45;46.92;;;25.70;;
43098;SDS011;28715;51.988;6.020;2022-10-17T04:21:11;33.77;;;20.17;;
43098;SDS011;28715;51.988;6.020;2022-10-17T04:23:37;40.90;;;24.77;;
43098;SDS011;28715;51.988;6.020;2022-10-17T04:26:05;44.90;;;26.00;;
43098;SDS011;28715;51.988;6.020;2022-10-17T04:28:31;33.85;;;21.02;;
43098;SDS011;28715;51.988;6.020;2022-10-17T04:30:58;36.75;;;23.10;;
43098;SDS011;28715;51.988;6.020;2022-10-17T04:33:24;56.13;;;28.05;;
43098;SDS011;28715;51.988;6.020;2022-10-17T04:38:36;56.63;;;28.70;;
43098;SDS011;28715;51.988;6.020;2022-10-17T04:41:03;34.45;;;22.55;;
43098;SDS011;28715;51.988;6.020;2022-10-17T04:43:34;57.72;;;28.77;;
43098;SDS011;28715;51.988;6.020;2022-10-17T04:46:10;48.67;;;25.70;;
43098;SDS011;28715;51.988;6.020;2022-10-17T04:48:38;49.58;;;26.85;;
43098;SDS011;28715;51.988;6.020;2022-10-17T04:51:10;39.65;;;23.30;;
43098;SDS011;28715;51.988;6.020;2022-10-17T04:53:41;43.28;;;24.63;;
43098;SDS011;28715;51.988;6.020;2022-10-17T04:56:29;51.85;;;26.95;;
43098;SDS011;28715;51.988;6.020;2022-10-17T04:58:53;48.65;;;26.10;;
43098;SDS011;28715;51.988;6.020;2022-10-17T05:01:20;49.03;;;27.17;;
43098;SDS011;28715;51.988;6.020;2022-10-17T05:03:50;48.42;;;26.20;;
43098;SDS011;28715;51.988;6.020;2022-10-17T05:08:46;41.33;;;24.30;;
43098;SDS011;28715;51.988;6.020;2022-10-17T05:11:15;35.15;;;22.35;;
43098;SDS011;28715;51.988;6.020;2022-10-17T05:13:49;47.97;;;25.13;;
43098;SDS011;28715;51.988;6.020;2022-10-17T05:16:16;41.92;;;24.55;;
43098;SDS011;28715;51.988;6.020;2022-10-17T05:18:42;43.77;;;25.00;;
43098;SDS011;28715;51.988;6.020;2022-10-17T05:21:08;48.17;;;26.70;;
43098;SDS011;28715;51.988;6.020;2022-10-17T05:23:37;49.03;;;26.05;;
43098;SDS011;28715;51.988;6.020;2022-10-17T05:26:03;66.65;;;30.25;;
43098;SDS011;28715;51.988;6.020;2022-10-17T05:28:28;46.30;;;24.93;;
43098;SDS011;28715;51.988;6.020;2022-10-17T05:30:54;38.33;;;23.17;;
43098;SDS011;28715;51.988;6.020;2022-10-17T05:33:21;53.10;;;28.17;;
43098;SDS011;28715;51.988;6.020;2022-10-17T05:35:47;45.92;;;23.40;;
43098;SDS011;28715;51.988;6.020;2022-10-17T05:38:13;50.17;;;27.13;;
43098;SDS011;28715;51.988;6.020;2022-10-17T05:40:38;52.40;;;27.00;;
43098;SDS011;28715;51.988;6.020;2022-10-17T05:43:07;32.10;;;19.73;;
43098;SDS011;28715;51.988;6.020;2022-10-17T05:45:33;39.10;;;22.20;;
43098;SDS011;28715;51.988;6.020;2022-10-17T05:48:00;32.40;;;20.50;;
43098;SDS011;28715;51.988;6.020;2022-10-17T05:50:26;46.67;;;23.90;;
43098;SDS011;28715;51.988;6.020;2022-10-17T05:52:52;47.50;;;24.37;;
43098;SDS011;28715;51.988;6.020;2022-10-17T05:55:21;45.67;;;26.80;;
43098;SDS011;28715;51.988;6.020;2022-10-17T05:57:50;60.83;;;40.53;;
43098;SDS011;28715;51.988;6.020;2022-10-17T06:00:23;87.10;;;54.55;;
43098;SDS011;28715;51.988;6.020;2022-10-17T06:03:07;56.35;;;29.73;;
43098;SDS011;28715;51.988;6.020;2022-10-17T06:05:42;39.67;;;24.75;;
43098;SDS011;28715;51.988;6.020;2022-10-17T06:08:20;59.13;;;27.10;;
43098;SDS011;28715;51.988;6.020;2022-10-17T06:11:04;35.22;;;20.75;;
43098;SDS011;28715;51.988;6.020;2022-10-17T06:13:32;39.00;;;21.67;;
43098;SDS011;28715;51.988;6.020;2022-10-17T06:15:57;53.97;;;26.60;;
43098;SDS011;28715;51.988;6.020;2022-10-17T06:18:23;38.47;;;21.70;;
43098;SDS011;28715;51.988;6.020;2022-10-17T06:20:51;47.00;;;23.33;;
43098;SDS011;28715;51.988;6.020;2022-10-17T06:23:25;40.78;;;23.95;;
43098;SDS011;28715;51.988;6.020;2022-10-17T06:25:59;48.53;;;26.50;;
43098;SDS011;28715;51.988;6.020;2022-10-17T06:32:12;43.83;;;24.92;;
43098;SDS011;28715;51.988;6.020;2022-10-17T06:34:52;42.38;;;24.13;;
43098;SDS011;28715;51.988;6.020;2022-10-17T06:37:21;60.25;;;28.27;;
43098;SDS011;28715;51.988;6.020;2022-10-17T06:40:09;37.67;;;22.77;;
43098;SDS011;28715;51.988;6.020;2022-10-17T06:42:41;38.15;;;23.63;;
43098;SDS011;28715;51.988;6.020;2022-10-17T06:45:17;44.83;;;24.90;;
43098;SDS011;28715;51.988;6.020;2022-10-17T06:47:55;40.92;;;23.73;;
43098;SDS011;28715;51.988;6.020;2022-10-17T06:50:26;39.85;;;23.50;;
43098;SDS011;28715;51.988;6.020;2022-10-17T06:52:51;37.78;;;22.77;;
43098;SDS011;28715;51.988;6.020;2022-10-17T06:55:27;34.17;;;22.85;;
43098;SDS011;28715;51.988;6.020;2022-10-17T06:57:55;30.55;;;19.85;;
43098;SDS011;28715;51.988;6.020;2022-10-17T07:00:25;34.55;;;22.00;;
43098;SDS011;28715;51.988;6.020;2022-10-17T07:02:53;40.50;;;24.35;;
43098;SDS011;28715;51.988;6.020;2022-10-17T07:05:34;30.60;;;20.03;;
43098;SDS011;28715;51.988;6.020;2022-10-17T07:08:11;38.03;;;23.42;;
43098;SDS011;28715;51.988;6.020;2022-10-17T07:10:47;38.97;;;24.55;;
43098;SDS011;28715;51.988;6.020;2022-10-17T07:13:23;53.63;;;27.45;;
43098;SDS011;28715;51.988;6.020;2022-10-17T07:19:44;36.53;;;25.02;;
43098;SDS011;28715;51.988;6.020;2022-10-17T07:22:44;37.10;;;24.17;;
43098;SDS011;28715;51.988;6.020;2022-10-17T07:25:26;36.93;;;27.53;;
43098;SDS011;28715;51.988;6.020;2022-10-17T07:31:54;28.13;;;20.23;;
43098;SDS011;28715;51.988;6.020;2022-10-17T07:41:09;24.73;;;18.60;;
43098;SDS011;28715;51.988;6.020;2022-10-17T07:43:56;28.43;;;19.40;;
43098;SDS011;28715;51.988;6.020;2022-10-17T07:46:25;19.20;;;13.57;;
43098;SDS011;28715;51.988;6.020;2022-10-17T07:49:20;20.90;;;14.93;;
43098;SDS011;28715;51.988;6.020;2022-10-17T07:59:00;18.57;;;13.70;;
43098;SDS011;28715;51.988;6.020;2022-10-17T08:22:31;19.13;;;11.83;;
43098;SDS011;28715;51.988;6.020;2022-10-17T08:33:52;16.17;;;11.53;;
43098;SDS011;28715;51.988;6.020;2022-10-17T08:36:38;18.50;;;12.77;;
43098;SDS011;28715;51.988;6.020;2022-10-17T08:42:56;19.90;;;12.53;;
43098;SDS011;28715;51.988;6.020;2022-10-17T08:46:19;17.40;;;12.93;;
43098;SDS011;28715;51.988;6.020;2022-10-17T08:49:08;21.70;;;14.33;;
43098;SDS011;28715;51.988;6.020;2022-10-17T08:51:40;19.50;;;13.53;;
43098;SDS011;28715;51.988;6.020;2022-10-17T08:54:21;21.63;;;13.43;;
43098;SDS011;28715;51.988;6.020;2022-10-17T08:57:10;20.97;;;14.40;;
43098;SDS011;28715;51.988;6.020;2022-10-17T08:59:39;17.70;;;13.20;;
43098;SDS011;28715;51.988;6.020;2022-10-17T09:11:00;22.27;;;14.17;;
43098;SDS011;28715;51.988;6.020;2022-10-17T09:13:42;20.83;;;15.60;;
43098;SDS011;28715;51.988;6.020;2022-10-17T09:21:49;23.87;;;16.00;;
43098;SDS011;28715;51.988;6.020;2022-10-17T09:27:34;18.03;;;13.07;;
43098;SDS011;28715;51.988;6.020;2022-10-17T09:32:47;20.10;;;13.77;;
43098;SDS011;28715;51.988;6.020;2022-10-17T09:35:12;21.47;;;13.63;;
43098;SDS011;28715;51.988;6.020;2022-10-17T09:37:39;19.70;;;13.47;;
43098;SDS011;28715;51.988;6.020;2022-10-17T09:40:06;17.93;;;13.00;;
43098;SDS011;28715;51.988;6.020;2022-10-17T09:42:40;17.33;;;13.00;;
43098;SDS011;28715;51.988;6.020;2022-10-17T09:45:15;18.23;;;13.07;;
43098;SDS011;28715;51.988;6.020;2022-10-17T09:50:34;18.93;;;12.63;;
43098;SDS011;28715;51.988;6.020;2022-10-17T09:53:11;28.25;;;15.95;;
43098;SDS011;28715;51.988;6.020;2022-10-17T09:55:48;17.03;;;11.97;;
43098;SDS011;28715;51.988;6.020;2022-10-17T09:58:46;18.43;;;12.40;;
43098;SDS011;28715;51.988;6.020;2022-10-17T10:03:45;17.43;;;12.47;;
43098;SDS011;28715;51.988;6.020;2022-10-17T10:06:32;23.75;;;13.90;;
43098;SDS011;28715;51.988;6.020;2022-10-17T10:08:58;19.73;;;14.70;;
43098;SDS011;28715;51.988;6.020;2022-10-17T10:11:24;22.87;;;19.33;;
43098;SDS011;28715;51.988;6.020;2022-10-17T10:14:12;22.23;;;14.37;;
43098;SDS011;28715;51.988;6.020;2022-10-17T10:16:47;23.45;;;17.33;;
43098;SDS011;28715;51.988;6.020;2022-10-17T10:22:07;17.07;;;11.83;;
43098;SDS011;28715;51.988;6.020;2022-10-17T10:24:46;15.23;;;11.03;;
43098;SDS011;28715;51.988;6.020;2022-10-17T10:28:13;19.37;;;11.63;;
43098;SDS011;28715;51.988;6.020;2022-10-17T10:30:44;20.48;;;13.55;;
43098;SDS011;28715;51.988;6.020;2022-10-17T10:33:13;17.13;;;11.60;;
43098;SDS011;28715;51.988;6.020;2022-10-17T10:35:39;18.50;;;11.50;;
43098;SDS011;28715;51.988;6.020;2022-10-17T10:38:13;15.37;;;11.00;;
43098;SDS011;28715;51.988;6.020;2022-10-17T10:40:44;16.63;;;10.97;;
43098;SDS011;28715;51.988;6.020;2022-10-17T10:43:19;18.23;;;11.50;;
43098;SDS011;28715;51.988;6.020;2022-10-17T10:45:52;14.67;;;10.37;;
43098;SDS011;28715;51.988;6.020;2022-10-17T10:48:49;15.10;;;9.53;;
43098;SDS011;28715;51.988;6.020;2022-10-17T10:51:44;14.60;;;9.73;;
43098;SDS011;28715;51.988;6.020;2022-10-17T10:54:22;15.33;;;10.50;;
43098;SDS011;28715;51.988;6.020;2022-10-17T10:56:55;13.97;;;9.83;;
43098;SDS011;28715;51.988;6.020;2022-10-17T10:59:29;15.27;;;9.03;;
43098;SDS011;28715;51.988;6.020;2022-10-17T11:02:10;13.23;;;9.10;;
43098;SDS011;28715;51.988;6.020;2022-10-17T11:04:55;14.80;;;9.57;;
43098;SDS011;28715;51.988;6.020;2022-10-17T11:07:26;15.97;;;8.80;;
43098;SDS011;28715;51.988;6.020;2022-10-17T11:13:14;13.93;;;8.90;;
43098;SDS011;28715;51.988;6.020;2022-10-17T11:15:53;13.20;;;8.97;;
43098;SDS011;28715;51.988;6.020;2022-10-17T11:18:41;14.33;;;9.73;;
43098;SDS011;28715;51.988;6.020;2022-10-17T11:24:47;15.70;;;11.27;;
43098;SDS011;28715;51.988;6.020;2022-10-17T11:27:30;19.03;;;12.53;;
43098;SDS011;28715;51.988;6.020;2022-10-17T11:30:22;17.40;;;12.80;;
43098;SDS011;28715;51.988;6.020;2022-10-17T11:35:59;19.90;;;13.17;;
43098;SDS011;28715;51.988;6.020;2022-10-17T11:42:15;18.90;;;13.13;;
43098;SDS011;28715;51.988;6.020;2022-10-17T11:45:16;20.90;;;13.50;;
43098;SDS011;28715;51.988;6.020;2022-10-17T11:47:45;15.67;;;12.03;;
43098;SDS011;28715;51.988;6.020;2022-10-17T11:51:13;17.80;;;12.50;;
43098;SDS011;28715;51.988;6.020;2022-10-17T12:03:01;17.40;;;11.33;;
43098;SDS011;28715;51.988;6.020;2022-10-17T12:06:42;16.30;;;11.67;;
43098;SDS011;28715;51.988;6.020;2022-10-17T12:09:47;15.23;;;11.60;;
43098;SDS011;28715;51.988;6.020;2022-10-17T12:12:27;14.57;;;10.77;;
43098;SDS011;28715;51.988;6.020;2022-10-17T12:17:56;19.97;;;12.83;;
43098;SDS011;28715;51.988;6.020;2022-10-17T12:20:27;19.77;;;12.17;;
43098;SDS011;28715;51.988;6.020;2022-10-17T12:38:13;19.10;;;13.00;;
43098;SDS011;28715;51.988;6.020;2022-10-17T12:41:07;21.13;;;14.33;;
43098;SDS011;28715;51.988;6.020;2022-10-17T12:43:42;21.90;;;15.37;;
43098;SDS011;28715;51.988;6.020;2022-10-17T12:49:45;16.97;;;12.40;;
43098;SDS011;28715;51.988;6.020;2022-10-17T13:00:58;15.53;;;12.00;;
43098;SDS011;28715;51.988;6.020;2022-10-17T13:03:51;17.40;;;11.60;;
43098;SDS011;28715;51.988;6.020;2022-10-17T13:06:53;17.30;;;11.50;;
43098;SDS011;28715;51.988;6.020;2022-10-17T13:09:58;13.97;;;10.97;;
43098;SDS011;28715;51.988;6.020;2022-10-17T13:12:36;17.63;;;12.73;;
43098;SDS011;28715;51.988;6.020;2022-10-17T13:15:06;17.07;;;12.40;;
43098;SDS011;28715;51.988;6.020;2022-10-17T13:18:33;16.47;;;12.40;;
43098;SDS011;28715;51.988;6.020;2022-10-17T13:24:25;17.33;;;12.13;;
43098;SDS011;28715;51.988;6.020;2022-10-17T13:27:42;17.17;;;12.13;;
43098;SDS011;28715;51.988;6.020;2022-10-17T13:33:33;16.00;;;10.48;;
43098;SDS011;28715;51.988;6.020;2022-10-17T13:36:40;14.13;;;9.50;;
43098;SDS011;28715;51.988;6.020;2022-10-17T14:08:36;18.73;;;14.10;;
43098;SDS011;28715;51.988;6.020;2022-10-17T14:18:13;18.53;;;13.10;;
43098;SDS011;28715;51.988;6.020;2022-10-17T14:21:02;16.10;;;12.40;;
43098;SDS011;28715;51.988;6.020;2022-10-17T14:26:09;13.17;;;11.70;;
43098;SDS011;28715;51.988;6.020;2022-10-17T14:28:35;17.33;;;12.70;;
43098;SDS011;28715;51.988;6.020;2022-10-17T14:33:46;14.27;;;12.77;;
43098;SDS011;28715;51.988;6.020;2022-10-17T14:39:04;15.60;;;13.60;;
43098;SDS011;28715;51.988;6.020;2022-10-17T14:41:32;18.85;;;13.85;;
43098;SDS011;28715;51.988;6.020;2022-10-17T14:44:01;18.98;;;15.35;;
43098;SDS011;28715;51.988;6.020;2022-10-17T14:50:15;18.87;;;14.50;;
43098;SDS011;28715;51.988;6.020;2022-10-17T14:56:17;18.90;;;15.93;;
43098;SDS011;28715;51.988;6.020;2022-10-17T14:59:28;21.53;;;17.90;;
43098;SDS011;28715;51.988;6.020;2022-10-17T15:02:00;17.47;;;14.50;;
43098;SDS011;28715;51.988;6.020;2022-10-17T15:04:28;19.07;;;15.17;;
43098;SDS011;28715;51.988;6.020;2022-10-17T15:06:53;20.17;;;15.40;;
43098;SDS011;28715;51.988;6.020;2022-10-17T15:13:01;20.80;;;16.87;;
43098;SDS011;28715;51.988;6.020;2022-10-17T15:19:03;22.97;;;19.20;;
43098;SDS011;28715;51.988;6.020;2022-10-17T15:22:15;21.50;;;18.43;;
43098;SDS011;28715;51.988;6.020;2022-10-17T15:24:45;23.17;;;19.63;;
43098;SDS011;28715;51.988;6.020;2022-10-17T15:27:23;23.80;;;19.40;;
43098;SDS011;28715;51.988;6.020;2022-10-17T15:29:57;24.03;;;19.43;;
43098;SDS011;28715;51.988;6.020;2022-10-17T15:32:39;24.23;;;20.33;;
43098;SDS011;28715;51.988;6.020;2022-10-17T15:37:54;25.67;;;20.07;;
43098;SDS011;28715;51.988;6.020;2022-10-17T15:40:34;29.92;;;20.88;;
43098;SDS011;28715;51.988;6.020;2022-10-17T15:43:05;29.03;;;22.37;;
43098;SDS011;28715;51.988;6.020;2022-10-17T15:45:33;29.07;;;22.30;;
43098;SDS011;28715;51.988;6.020;2022-10-17T15:51:34;27.63;;;22.40;;
43098;SDS011;28715;51.988;6.020;2022-10-17T15:57:29;30.63;;;22.60;;
43098;SDS011;28715;51.988;6.020;2022-10-17T16:00:34;30.40;;;22.90;;
43098;SDS011;28715;51.988;6.020;2022-10-17T16:03:40;29.10;;;22.77;;
43098;SDS011;28715;51.988;6.020;2022-10-17T16:06:07;31.43;;;23.87;;
43098;SDS011;28715;51.988;6.020;2022-10-17T16:08:35;33.03;;;25.17;;
43098;SDS011;28715;51.988;6.020;2022-10-17T16:11:01;42.63;;;34.60;;
43098;SDS011;28715;51.988;6.020;2022-10-17T16:19:57;66.00;;;40.20;;
43098;SDS011;28715;51.988;6.020;2022-10-17T16:22:33;38.00;;;29.43;;
43098;SDS011;28715;51.988;6.020;2022-10-17T16:25:29;37.83;;;27.25;;
43098;SDS011;28715;51.988;6.020;2022-10-17T16:28:16;35.60;;;26.73;;
43098;SDS011;28715;51.988;6.020;2022-10-17T16:30:42;28.13;;;22.70;;
43098;SDS011;28715;51.988;6.020;2022-10-17T16:33:09;30.10;;;23.67;;
43098;SDS011;28715;51.988;6.020;2022-10-17T16:36:05;33.67;;;25.97;;
43098;SDS011;28715;51.988;6.020;2022-10-17T16:38:45;33.37;;;25.67;;
43098;SDS011;28715;51.988;6.020;2022-10-17T16:41:24;34.17;;;26.03;;
43098;SDS011;28715;51.988;6.020;2022-10-17T16:44:13;32.70;;;24.00;;
43098;SDS011;28715;51.988;6.020;2022-10-17T16:46:40;35.37;;;26.33;;
43098;SDS011;28715;51.988;6.020;2022-10-17T16:52:31;39.07;;;27.20;;
43098;SDS011;28715;51.988;6.020;2022-10-17T16:54:57;34.47;;;25.87;;
43098;SDS011;28715;51.988;6.020;2022-10-17T16:57:25;39.10;;;27.70;;
43098;SDS011;28715;51.988;6.020;2022-10-17T16:59:51;40.33;;;29.40;;
43098;SDS011;28715;51.988;6.020;2022-10-17T17:02:16;40.23;;;28.20;;
43098;SDS011;28715;51.988;6.020;2022-10-17T17:04:42;36.70;;;27.67;;
43098;SDS011;28715;51.988;6.020;2022-10-17T17:07:11;36.28;;;26.40;;
43098;SDS011;28715;51.988;6.020;2022-10-17T17:09:37;38.30;;;26.73;;
43098;SDS011;28715;51.988;6.020;2022-10-17T17:12:03;33.57;;;26.00;;
43098;SDS011;28715;51.988;6.020;2022-10-17T17:14:39;35.87;;;25.50;;
43098;SDS011;28715;51.988;6.020;2022-10-17T17:17:05;35.47;;;26.00;;
43098;SDS011;28715;51.988;6.020;2022-10-17T17:19:30;32.73;;;24.97;;
43098;SDS011;28715;51.988;6.020;2022-10-17T17:21:58;30.90;;;23.13;;
43098;SDS011;28715;51.988;6.020;2022-10-17T17:24:24;33.00;;;24.13;;
43098;SDS011;28715;51.988;6.020;2022-10-17T17:26:53;33.50;;;23.87;;
43098;SDS011;28715;51.988;6.020;2022-10-17T17:29:23;33.33;;;22.70;;
43098;SDS011;28715;51.988;6.020;2022-10-17T17:31:49;36.43;;;25.57;;
43098;SDS011;28715;51.988;6.020;2022-10-17T17:34:15;35.80;;;24.97;;
43098;SDS011;28715;51.988;6.020;2022-10-17T17:36:41;40.57;;;27.77;;
43098;SDS011;28715;51.988;6.020;2022-10-17T17:39:09;40.77;;;27.47;;
43098;SDS011;28715;51.988;6.020;2022-10-17T17:41:36;39.55;;;27.20;;
43098;SDS011;28715;51.988;6.020;2022-10-17T17:44:03;44.63;;;29.00;;
43098;SDS011;28715;51.988;6.020;2022-10-17T17:46:29;40.73;;;27.77;;
43098;SDS011;28715;51.988;6.020;2022-10-17T17:48:56;39.50;;;28.47;;
43098;SDS011;28715;51.988;6.020;2022-10-17T17:51:23;82.23;;;50.20;;
43098;SDS011;28715;51.988;6.020;2022-10-17T17:54:01;118.23;;;65.13;;
43098;SDS011;28715;51.988;6.020;2022-10-17T17:56:28;81.80;;;46.23;;
43098;SDS011;28715;51.988;6.020;2022-10-17T17:58:59;108.40;;;59.30;;
43098;SDS011;28715;51.988;6.020;2022-10-17T18:01:26;141.40;;;74.23;;
43098;SDS011;28715;51.988;6.020;2022-10-17T18:03:54;163.50;;;84.97;;
43098;SDS011;28715;51.988;6.020;2022-10-17T18:06:22;76.13;;;45.85;;
43098;SDS011;28715;51.988;6.020;2022-10-17T18:08:49;342.97;;;171.23;;
43098;SDS011;28715;51.988;6.020;2022-10-17T18:11:17;91.33;;;51.50;;
43098;SDS011;28715;51.988;6.020;2022-10-17T18:13:43;142.50;;;73.30;;
43098;SDS011;28715;51.988;6.020;2022-10-17T18:16:08;148.80;;;76.53;;
43098;SDS011;28715;51.988;6.020;2022-10-17T18:18:40;76.90;;;44.72;;
43098;SDS011;28715;51.988;6.020;2022-10-17T18:21:15;217.27;;;108.10;;
43098;SDS011;28715;51.988;6.020;2022-10-17T18:23:42;82.53;;;48.97;;
43098;SDS011;28715;51.988;6.020;2022-10-17T18:26:09;66.97;;;44.42;;
43098;SDS011;28715;51.988;6.020;2022-10-17T18:28:37;92.27;;;74.00;;
43098;SDS011;28715;51.988;6.020;2022-10-17T18:31:06;52.20;;;37.93;;
43098;SDS011;28715;51.988;6.020;2022-10-17T18:33:39;60.53;;;37.53;;
43098;SDS011;28715;51.988;6.020;2022-10-17T18:36:09;65.60;;;37.20;;
43098;SDS011;28715;51.988;6.020;2022-10-17T18:38:36;51.67;;;34.80;;
43098;SDS011;28715;51.988;6.020;2022-10-17T18:41:09;60.20;;;37.27;;
43098;SDS011;28715;51.988;6.020;2022-10-17T18:43:40;73.33;;;38.27;;
43098;SDS011;28715;51.988;6.020;2022-10-17T18:46:07;64.77;;;38.63;;
43098;SDS011;28715;51.988;6.020;2022-10-17T18:48:38;57.17;;;36.53;;
43098;SDS011;28715;51.988;6.020;2022-10-17T18:51:05;109.10;;;43.50;;
43098;SDS011;28715;51.988;6.020;2022-10-17T18:53:31;75.53;;;44.03;;
43098;SDS011;28715;51.988;6.020;2022-10-17T18:55:56;61.17;;;37.03;;
43098;SDS011;28715;51.988;6.020;2022-10-17T18:58:22;60.37;;;35.70;;
43098;SDS011;28715;51.988;6.020;2022-10-17T19:00:48;59.93;;;36.90;;
43098;SDS011;28715;51.988;6.020;2022-10-17T19:03:15;60.17;;;36.30;;
43098;SDS011;28715;51.988;6.020;2022-10-17T19:05:41;80.40;;;40.87;;
43098;SDS011;28715;51.988;6.020;2022-10-17T19:08:09;64.67;;;37.63;;
43098;SDS011;28715;51.988;6.020;2022-10-17T19:10:39;62.33;;;37.50;;
43098;SDS011;28715;51.988;6.020;2022-10-17T19:13:06;65.90;;;38.77;;
43098;SDS011;28715;51.988;6.020;2022-10-17T19:15:35;52.07;;;33.87;;
43098;SDS011;28715;51.988;6.020;2022-10-17T19:18:02;65.87;;;38.20;;
43098;SDS011;28715;51.988;6.020;2022-10-17T19:20:27;54.40;;;35.43;;
43098;SDS011;28715;51.988;6.020;2022-10-17T19:22:53;59.13;;;36.27;;